sensor_id;sensor_type;location;lat;lon;timestamp;P1;durP1;ratioP1;P2;durP2;ratioP2
58896;SDS011;44677;52.378;10.400;2023-03-19T00:01:10;8.70;;;6.80;;
58896;SDS011;44677;52.378;10.400;2023-03-19T00:03:36;9.80;;;7.70;;
58896;SDS011;44677;52.378;10.400;2023-03-19T00:06:01;15.90;;;10.20;;
58896;SDS011;44677;52.378;10.400;2023-03-19T00:08:27;10.90;;;8.30;;
58896;SDS011;44677;52.378;10.400;2023-03-19T00:10:52;10.10;;;6.70;;
58896;SDS011;44677;52.378;10.400;2023-03-19T00:13:18;10.90;;;7.10;;
58896;SDS011;44677;52.378;10.400;2023-03-19T00:15:44;8.80;;;7.50;;
58896;SDS011;44677;52.378;10.400;2023-03-19T00:18:09;8.60;;;6.80;;
58896;SDS011;44677;52.378;10.400;2023-03-19T00:20:35;8.20;;;7.40;;
58896;SDS011;44677;52.378;10.400;2023-03-19T00:23:00;8.00;;;7.20;;
58896;SDS011;44677;52.378;10.400;2023-03-19T00:25:26;8.30;;;7.30;;
58896;SDS011;44677;52.378;10.400;2023-03-19T00:27:51;9.00;;;7.10;;
58896;SDS011;44677;52.378;10.400;2023-03-19T00:30:19;8.20;;;7.20;;
58896;SDS011;44677;52.378;10.400;2023-03-19T00:32:46;10.80;;;7.90;;
58896;SDS011;44677;52.378;10.400;2023-03-19T00:35:12;9.10;;;7.20;;
58896;SDS011;44677;52.378;10.400;2023-03-19T00:37:40;10.80;;;8.00;;
58896;SDS011;44677;52.378;10.400;2023-03-19T00:40:06;12.20;;;8.00;;
58896;SDS011;44677;52.378;10.400;2023-03-19T00:42:33;10.40;;;7.40;;
58896;SDS011;44677;52.378;10.400;2023-03-19T00:44:58;10.30;;;7.80;;
58896;SDS011;44677;52.378;10.400;2023-03-19T00:47:24;10.30;;;7.70;;
58896;SDS011;44677;52.378;10.400;2023-03-19T00:49:50;12.20;;;8.20;;
58896;SDS011;44677;52.378;10.400;2023-03-19T00:52:16;9.20;;;7.80;;
58896;SDS011;44677;52.378;10.400;2023-03-19T00:54:41;8.60;;;7.30;;
58896;SDS011;44677;52.378;10.400;2023-03-19T00:57:07;9.40;;;7.60;;
58896;SDS011;44677;52.378;10.400;2023-03-19T00:59:33;9.10;;;7.60;;
58896;SDS011;44677;52.378;10.400;2023-03-19T01:01:58;9.20;;;7.80;;
58896;SDS011;44677;52.378;10.400;2023-03-19T01:04:24;10.80;;;7.70;;
58896;SDS011;44677;52.378;10.400;2023-03-19T01:06:49;11.20;;;7.50;;
58896;SDS011;44677;52.378;10.400;2023-03-19T01:09:15;8.90;;;7.10;;
58896;SDS011;44677;52.378;10.400;2023-03-19T01:11:40;9.90;;;7.70;;
58896;SDS011;44677;52.378;10.400;2023-03-19T01:14:07;10.20;;;7.50;;
58896;SDS011;44677;52.378;10.400;2023-03-19T01:16:33;9.70;;;8.10;;
58896;SDS011;44677;52.378;10.400;2023-03-19T01:18:59;8.30;;;6.70;;
58896;SDS011;44677;52.378;10.400;2023-03-19T01:21:25;9.20;;;7.40;;
58896;SDS011;44677;52.378;10.400;2023-03-19T01:23:55;9.10;;;7.10;;
58896;SDS011;44677;52.378;10.400;2023-03-19T01:26:22;9.30;;;7.40;;
58896;SDS011;44677;52.378;10.400;2023-03-19T01:28:52;8.40;;;7.20;;
58896;SDS011;44677;52.378;10.400;2023-03-19T01:31:19;10.00;;;7.80;;
58896;SDS011;44677;52.378;10.400;2023-03-19T01:34:04;8.70;;;7.20;;
58896;SDS011;44677;52.378;10.400;2023-03-19T01:36:57;9.10;;;7.10;;
58896;SDS011;44677;52.378;10.400;2023-03-19T01:39:31;8.30;;;7.10;;
58896;SDS011;44677;52.378;10.400;2023-03-19T01:41:59;7.40;;;6.70;;
58896;SDS011;44677;52.378;10.400;2023-03-19T01:44:46;7.00;;;6.30;;
58896;SDS011;44677;52.378;10.400;2023-03-19T01:47:41;8.30;;;7.10;;
58896;SDS011;44677;52.378;10.400;2023-03-19T01:53:40;7.40;;;6.60;;
58896;SDS011;44677;52.378;10.400;2023-03-19T01:56:21;8.60;;;7.30;;
58896;SDS011;44677;52.378;10.400;2023-03-19T01:59:01;7.50;;;6.70;;
58896;SDS011;44677;52.378;10.400;2023-03-19T02:01:45;8.00;;;6.90;;
58896;SDS011;44677;52.378;10.400;2023-03-19T02:04:14;6.90;;;6.30;;
58896;SDS011;44677;52.378;10.400;2023-03-19T02:06:40;8.10;;;6.80;;
58896;SDS011;44677;52.378;10.400;2023-03-19T02:09:05;7.30;;;6.60;;
58896;SDS011;44677;52.378;10.400;2023-03-19T02:13:58;6.40;;;5.80;;
58896;SDS011;44677;52.378;10.400;2023-03-19T02:16:23;8.10;;;7.30;;
58896;SDS011;44677;52.378;10.400;2023-03-19T02:18:51;7.50;;;6.80;;
58896;SDS011;44677;52.378;10.400;2023-03-19T02:21:17;6.80;;;5.80;;
58896;SDS011;44677;52.378;10.400;2023-03-19T02:26:26;7.70;;;6.90;;
58896;SDS011;44677;52.378;10.400;2023-03-19T02:28:57;8.40;;;7.50;;
58896;SDS011;44677;52.378;10.400;2023-03-19T02:31:27;9.00;;;7.90;;
58896;SDS011;44677;52.378;10.400;2023-03-19T02:34:00;9.20;;;7.90;;
58896;SDS011;44677;52.378;10.400;2023-03-19T02:36:30;8.60;;;7.70;;
58896;SDS011;44677;52.378;10.400;2023-03-19T02:39:03;8.20;;;7.40;;
58896;SDS011;44677;52.378;10.400;2023-03-19T02:41:30;8.40;;;7.40;;
58896;SDS011;44677;52.378;10.400;2023-03-19T02:43:57;8.70;;;7.80;;
58896;SDS011;44677;52.378;10.400;2023-03-19T02:46:24;9.50;;;8.20;;
58896;SDS011;44677;52.378;10.400;2023-03-19T02:48:49;8.50;;;7.70;;
58896;SDS011;44677;52.378;10.400;2023-03-19T02:51:16;10.80;;;8.90;;
58896;SDS011;44677;52.378;10.400;2023-03-19T02:53:44;10.80;;;8.70;;
58896;SDS011;44677;52.378;10.400;2023-03-19T02:56:10;9.10;;;8.00;;
58896;SDS011;44677;52.378;10.400;2023-03-19T02:58:35;8.90;;;8.00;;
58896;SDS011;44677;52.378;10.400;2023-03-19T03:01:01;9.00;;;8.00;;
58896;SDS011;44677;52.378;10.400;2023-03-19T03:03:26;8.60;;;7.70;;
58896;SDS011;44677;52.378;10.400;2023-03-19T03:05:51;8.70;;;7.80;;
58896;SDS011;44677;52.378;10.400;2023-03-19T03:08:17;8.30;;;7.60;;
58896;SDS011;44677;52.378;10.400;2023-03-19T03:10:42;8.30;;;7.50;;
58896;SDS011;44677;52.378;10.400;2023-03-19T03:13:08;8.50;;;7.60;;
58896;SDS011;44677;52.378;10.400;2023-03-19T03:15:33;10.10;;;7.80;;
58896;SDS011;44677;52.378;10.400;2023-03-19T03:17:59;8.90;;;7.80;;
58896;SDS011;44677;52.378;10.400;2023-03-19T03:20:25;9.90;;;7.60;;
58896;SDS011;44677;52.378;10.400;2023-03-19T03:22:51;10.80;;;7.50;;
58896;SDS011;44677;52.378;10.400;2023-03-19T03:25:17;10.30;;;9.20;;
58896;SDS011;44677;52.378;10.400;2023-03-19T03:27:43;8.70;;;7.80;;
58896;SDS011;44677;52.378;10.400;2023-03-19T03:32:36;8.20;;;7.30;;
58896;SDS011;44677;52.378;10.400;2023-03-19T03:35:02;8.20;;;7.40;;
58896;SDS011;44677;52.378;10.400;2023-03-19T03:37:29;8.50;;;7.60;;
58896;SDS011;44677;52.378;10.400;2023-03-19T03:39:55;8.40;;;7.20;;
58896;SDS011;44677;52.378;10.400;2023-03-19T03:42:20;8.70;;;7.40;;
58896;SDS011;44677;52.378;10.400;2023-03-19T03:44:46;8.60;;;7.60;;
58896;SDS011;44677;52.378;10.400;2023-03-19T03:47:12;9.10;;;7.40;;
58896;SDS011;44677;52.378;10.400;2023-03-19T03:49:37;8.50;;;7.30;;
58896;SDS011;44677;52.378;10.400;2023-03-19T03:52:03;8.60;;;7.50;;
58896;SDS011;44677;52.378;10.400;2023-03-19T03:54:31;7.80;;;6.90;;
58896;SDS011;44677;52.378;10.400;2023-03-19T03:56:56;7.20;;;6.60;;
58896;SDS011;44677;52.378;10.400;2023-03-19T03:59:22;9.00;;;7.60;;
58896;SDS011;44677;52.378;10.400;2023-03-19T04:04:14;10.20;;;7.20;;
58896;SDS011;44677;52.378;10.400;2023-03-19T04:06:40;7.90;;;7.10;;
58896;SDS011;44677;52.378;10.400;2023-03-19T04:09:12;10.00;;;7.00;;
58896;SDS011;44677;52.378;10.400;2023-03-19T04:11:37;10.90;;;7.50;;
58896;SDS011;44677;52.378;10.400;2023-03-19T04:14:05;9.60;;;7.20;;
58896;SDS011;44677;52.378;10.400;2023-03-19T04:16:32;7.10;;;6.40;;
58896;SDS011;44677;52.378;10.400;2023-03-19T04:18:58;10.50;;;7.80;;
58896;SDS011;44677;52.378;10.400;2023-03-19T04:21:23;10.00;;;7.20;;
58896;SDS011;44677;52.378;10.400;2023-03-19T04:23:50;8.30;;;7.40;;
58896;SDS011;44677;52.378;10.400;2023-03-19T04:26:16;8.50;;;7.00;;
58896;SDS011;44677;52.378;10.400;2023-03-19T04:28:41;8.20;;;6.80;;
58896;SDS011;44677;52.378;10.400;2023-03-19T04:31:07;9.30;;;7.10;;
58896;SDS011;44677;52.378;10.400;2023-03-19T04:33:35;8.20;;;6.80;;
58896;SDS011;44677;52.378;10.400;2023-03-19T04:36:01;7.80;;;6.40;;
58896;SDS011;44677;52.378;10.400;2023-03-19T04:38:28;6.80;;;6.10;;
58896;SDS011;44677;52.378;10.400;2023-03-19T04:40:53;6.70;;;6.00;;
58896;SDS011;44677;52.378;10.400;2023-03-19T04:43:21;6.70;;;6.00;;
58896;SDS011;44677;52.378;10.400;2023-03-19T04:45:48;6.60;;;5.90;;
58896;SDS011;44677;52.378;10.400;2023-03-19T04:48:14;7.40;;;6.50;;
58896;SDS011;44677;52.378;10.400;2023-03-19T04:50:40;6.60;;;6.00;;
58896;SDS011;44677;52.378;10.400;2023-03-19T04:53:06;6.80;;;5.60;;
58896;SDS011;44677;52.378;10.400;2023-03-19T04:55:32;7.20;;;6.30;;
58896;SDS011;44677;52.378;10.400;2023-03-19T04:58:04;6.60;;;5.90;;
58896;SDS011;44677;52.378;10.400;2023-03-19T05:02:57;6.30;;;5.70;;
58896;SDS011;44677;52.378;10.400;2023-03-19T05:05:22;6.60;;;5.80;;
58896;SDS011;44677;52.378;10.400;2023-03-19T05:07:48;7.20;;;6.50;;
58896;SDS011;44677;52.378;10.400;2023-03-19T05:10:13;7.10;;;6.30;;
58896;SDS011;44677;52.378;10.400;2023-03-19T05:12:39;8.50;;;6.50;;
58896;SDS011;44677;52.378;10.400;2023-03-19T05:15:05;7.10;;;6.30;;
58896;SDS011;44677;52.378;10.400;2023-03-19T05:17:35;7.00;;;6.40;;
58896;SDS011;44677;52.378;10.400;2023-03-19T05:20:20;7.40;;;6.30;;
58896;SDS011;44677;52.378;10.400;2023-03-19T05:23:02;9.00;;;6.50;;
58896;SDS011;44677;52.378;10.400;2023-03-19T05:25:48;8.00;;;6.90;;
58896;SDS011;44677;52.378;10.400;2023-03-19T05:28:17;8.50;;;6.30;;
58896;SDS011;44677;52.378;10.400;2023-03-19T05:30:43;7.70;;;6.80;;
58896;SDS011;44677;52.378;10.400;2023-03-19T05:33:18;8.80;;;6.50;;
58896;SDS011;44677;52.378;10.400;2023-03-19T05:35:44;7.30;;;5.90;;
58896;SDS011;44677;52.378;10.400;2023-03-19T05:38:18;6.80;;;6.20;;
58896;SDS011;44677;52.378;10.400;2023-03-19T05:40:47;8.70;;;6.90;;
58896;SDS011;44677;52.378;10.400;2023-03-19T05:43:20;7.10;;;6.50;;
58896;SDS011;44677;52.378;10.400;2023-03-19T05:45:49;10.10;;;6.70;;
58896;SDS011;44677;52.378;10.400;2023-03-19T05:48:19;8.60;;;6.80;;
58896;SDS011;44677;52.378;10.400;2023-03-19T05:50:46;7.40;;;6.70;;
58896;SDS011;44677;52.378;10.400;2023-03-19T05:53:18;7.50;;;6.80;;
58896;SDS011;44677;52.378;10.400;2023-03-19T05:55:53;8.50;;;6.60;;
58896;SDS011;44677;52.378;10.400;2023-03-19T05:58:18;7.30;;;6.50;;
58896;SDS011;44677;52.378;10.400;2023-03-19T06:00:44;9.00;;;6.90;;
58896;SDS011;44677;52.378;10.400;2023-03-19T06:03:11;7.50;;;6.40;;
58896;SDS011;44677;52.378;10.400;2023-03-19T06:05:49;8.40;;;6.30;;
58896;SDS011;44677;52.378;10.400;2023-03-19T06:08:41;8.60;;;6.10;;
58896;SDS011;44677;52.378;10.400;2023-03-19T06:11:27;8.20;;;5.90;;
58896;SDS011;44677;52.378;10.400;2023-03-19T06:14:07;9.10;;;5.70;;
58896;SDS011;44677;52.378;10.400;2023-03-19T06:16:36;6.90;;;5.70;;
58896;SDS011;44677;52.378;10.400;2023-03-19T06:19:02;8.70;;;5.80;;
58896;SDS011;44677;52.378;10.400;2023-03-19T06:21:28;6.80;;;5.70;;
58896;SDS011;44677;52.378;10.400;2023-03-19T06:23:55;7.20;;;6.30;;
58896;SDS011;44677;52.378;10.400;2023-03-19T06:26:26;6.90;;;6.20;;
58896;SDS011;44677;52.378;10.400;2023-03-19T06:28:54;8.30;;;5.60;;
58896;SDS011;44677;52.378;10.400;2023-03-19T06:31:19;8.50;;;6.70;;
58896;SDS011;44677;52.378;10.400;2023-03-19T06:33:51;9.00;;;7.00;;
58896;SDS011;44677;52.378;10.400;2023-03-19T06:36:17;7.00;;;6.10;;
58896;SDS011;44677;52.378;10.400;2023-03-19T06:38:42;9.10;;;6.30;;
58896;SDS011;44677;52.378;10.400;2023-03-19T06:41:08;9.00;;;6.90;;
58896;SDS011;44677;52.378;10.400;2023-03-19T06:43:33;7.10;;;5.80;;
58896;SDS011;44677;52.378;10.400;2023-03-19T06:46:04;7.50;;;6.20;;
58896;SDS011;44677;52.378;10.400;2023-03-19T06:48:32;7.80;;;5.90;;
58896;SDS011;44677;52.378;10.400;2023-03-19T06:50:58;7.30;;;6.30;;
58896;SDS011;44677;52.378;10.400;2023-03-19T06:53:24;7.10;;;6.40;;
58896;SDS011;44677;52.378;10.400;2023-03-19T06:55:50;7.80;;;6.50;;
58896;SDS011;44677;52.378;10.400;2023-03-19T06:58:15;7.20;;;6.40;;
58896;SDS011;44677;52.378;10.400;2023-03-19T07:00:41;6.40;;;5.80;;
58896;SDS011;44677;52.378;10.400;2023-03-19T07:03:07;5.90;;;5.30;;
58896;SDS011;44677;52.378;10.400;2023-03-19T07:05:33;6.50;;;5.90;;
58896;SDS011;44677;52.378;10.400;2023-03-19T07:07:58;6.40;;;5.40;;
58896;SDS011;44677;52.378;10.400;2023-03-19T07:10:24;6.60;;;5.40;;
58896;SDS011;44677;52.378;10.400;2023-03-19T07:12:49;7.70;;;6.00;;
58896;SDS011;44677;52.378;10.400;2023-03-19T07:15:15;7.20;;;5.80;;
58896;SDS011;44677;52.378;10.400;2023-03-19T07:17:42;6.30;;;5.30;;
58896;SDS011;44677;52.378;10.400;2023-03-19T07:20:10;9.70;;;5.40;;
58896;SDS011;44677;52.378;10.400;2023-03-19T07:22:36;6.70;;;5.70;;
58896;SDS011;44677;52.378;10.400;2023-03-19T07:25:01;8.10;;;5.00;;
58896;SDS011;44677;52.378;10.400;2023-03-19T07:27:27;5.90;;;5.30;;
58896;SDS011;44677;52.378;10.400;2023-03-19T07:29:52;8.20;;;5.00;;
58896;SDS011;44677;52.378;10.400;2023-03-19T07:34:46;5.60;;;5.00;;
58896;SDS011;44677;52.378;10.400;2023-03-19T07:37:11;7.20;;;5.50;;
58896;SDS011;44677;52.378;10.400;2023-03-19T07:39:36;7.10;;;5.00;;
58896;SDS011;44677;52.378;10.400;2023-03-19T07:42:02;8.40;;;5.10;;
58896;SDS011;44677;52.378;10.400;2023-03-19T07:44:28;7.10;;;5.50;;
58896;SDS011;44677;52.378;10.400;2023-03-19T07:46:53;6.10;;;5.40;;
58896;SDS011;44677;52.378;10.400;2023-03-19T07:49:19;7.50;;;5.10;;
58896;SDS011;44677;52.378;10.400;2023-03-19T07:51:44;5.40;;;4.70;;
58896;SDS011;44677;52.378;10.400;2023-03-19T07:54:10;5.50;;;5.00;;
58896;SDS011;44677;52.378;10.400;2023-03-19T07:56:36;5.80;;;5.10;;
58896;SDS011;44677;52.378;10.400;2023-03-19T07:59:01;6.10;;;5.30;;
58896;SDS011;44677;52.378;10.400;2023-03-19T08:01:26;6.00;;;5.00;;
58896;SDS011;44677;52.378;10.400;2023-03-19T08:03:52;6.90;;;5.00;;
58896;SDS011;44677;52.378;10.400;2023-03-19T08:06:17;5.50;;;4.70;;
58896;SDS011;44677;52.378;10.400;2023-03-19T08:08:42;6.70;;;4.70;;
58896;SDS011;44677;52.378;10.400;2023-03-19T08:11:08;5.60;;;3.80;;
58896;SDS011;44677;52.378;10.400;2023-03-19T08:15:34;6.80;;;4.50;;
58896;SDS011;44677;52.378;10.400;2023-03-19T08:18:01;6.20;;;4.60;;
58896;SDS011;44677;52.378;10.400;2023-03-19T08:20:29;6.50;;;4.40;;
58896;SDS011;44677;52.378;10.400;2023-03-19T08:22:54;4.50;;;4.00;;
58896;SDS011;44677;52.378;10.400;2023-03-19T08:27:47;8.80;;;4.50;;
58896;SDS011;44677;52.378;10.400;2023-03-19T08:30:13;8.30;;;5.00;;
58896;SDS011;44677;52.378;10.400;2023-03-19T08:32:39;6.20;;;4.90;;
58896;SDS011;44677;52.378;10.400;2023-03-19T08:35:05;8.60;;;5.20;;
58896;SDS011;44677;52.378;10.400;2023-03-19T08:37:31;6.50;;;4.60;;
58896;SDS011;44677;52.378;10.400;2023-03-19T08:39:57;6.80;;;4.60;;
58896;SDS011;44677;52.378;10.400;2023-03-19T08:42:22;6.20;;;4.60;;
58896;SDS011;44677;52.378;10.400;2023-03-19T08:44:48;5.60;;;4.30;;
58896;SDS011;44677;52.378;10.400;2023-03-19T08:47:13;5.10;;;3.50;;
58896;SDS011;44677;52.378;10.400;2023-03-19T08:49:39;4.10;;;3.70;;
58896;SDS011;44677;52.378;10.400;2023-03-19T08:52:05;4.10;;;3.40;;
58896;SDS011;44677;52.378;10.400;2023-03-19T08:54:30;3.30;;;2.60;;
58896;SDS011;44677;52.378;10.400;2023-03-19T08:56:56;2.90;;;2.70;;
58896;SDS011;44677;52.378;10.400;2023-03-19T08:59:22;3.00;;;2.40;;
58896;SDS011;44677;52.378;10.400;2023-03-19T09:01:50;4.50;;;2.70;;
58896;SDS011;44677;52.378;10.400;2023-03-19T09:04:17;5.00;;;2.60;;
58896;SDS011;44677;52.378;10.400;2023-03-19T09:06:43;3.90;;;2.50;;
58896;SDS011;44677;52.378;10.400;2023-03-19T09:09:09;4.30;;;3.10;;
58896;SDS011;44677;52.378;10.400;2023-03-19T09:11:35;5.40;;;3.00;;
58896;SDS011;44677;52.378;10.400;2023-03-19T09:14:00;3.90;;;2.90;;
58896;SDS011;44677;52.378;10.400;2023-03-19T09:16:25;4.30;;;3.00;;
58896;SDS011;44677;52.378;10.400;2023-03-19T09:18:51;4.10;;;3.00;;
58896;SDS011;44677;52.378;10.400;2023-03-19T09:21:16;2.90;;;2.50;;
58896;SDS011;44677;52.378;10.400;2023-03-19T09:23:42;4.00;;;2.60;;
58896;SDS011;44677;52.378;10.400;2023-03-19T09:26:07;4.60;;;2.90;;
58896;SDS011;44677;52.378;10.400;2023-03-19T09:28:33;3.50;;;2.30;;
58896;SDS011;44677;52.378;10.400;2023-03-19T09:30:59;2.90;;;2.30;;
58896;SDS011;44677;52.378;10.400;2023-03-19T09:33:24;1.90;;;1.50;;
58896;SDS011;44677;52.378;10.400;2023-03-19T09:35:50;2.90;;;1.90;;
58896;SDS011;44677;52.378;10.400;2023-03-19T09:40:43;4.40;;;1.80;;
58896;SDS011;44677;52.378;10.400;2023-03-19T09:45:58;1.50;;;1.20;;
58896;SDS011;44677;52.378;10.400;2023-03-19T09:51:00;2.60;;;1.90;;
58896;SDS011;44677;52.378;10.400;2023-03-19T09:53:35;2.90;;;1.50;;
58896;SDS011;44677;52.378;10.400;2023-03-19T09:56:13;1.90;;;1.30;;
58896;SDS011;44677;52.378;10.400;2023-03-19T09:58:40;2.00;;;1.60;;
58896;SDS011;44677;52.378;10.400;2023-03-19T10:01:06;3.10;;;1.70;;
58896;SDS011;44677;52.378;10.400;2023-03-19T10:09:00;2.10;;;1.90;;
58896;SDS011;44677;52.378;10.400;2023-03-19T10:11:58;2.90;;;1.90;;
58896;SDS011;44677;52.378;10.400;2023-03-19T10:14:58;4.30;;;2.00;;
58896;SDS011;44677;52.378;10.400;2023-03-19T10:17:34;4.70;;;2.40;;
58896;SDS011;44677;52.378;10.400;2023-03-19T10:22:48;2.60;;;1.70;;
58896;SDS011;44677;52.378;10.400;2023-03-19T10:25:20;2.70;;;2.10;;
58896;SDS011;44677;52.378;10.400;2023-03-19T10:27:49;2.10;;;1.60;;
58896;SDS011;44677;52.378;10.400;2023-03-19T10:30:20;1.90;;;1.60;;
58896;SDS011;44677;52.378;10.400;2023-03-19T10:32:48;2.50;;;1.60;;
58896;SDS011;44677;52.378;10.400;2023-03-19T10:35:21;2.20;;;1.60;;
58896;SDS011;44677;52.378;10.400;2023-03-19T10:37:48;2.50;;;2.10;;
58896;SDS011;44677;52.378;10.400;2023-03-19T10:40:23;2.90;;;2.00;;
58896;SDS011;44677;52.378;10.400;2023-03-19T10:45:42;3.80;;;2.30;;
58896;SDS011;44677;52.378;10.400;2023-03-19T10:48:11;1.60;;;1.50;;
58896;SDS011;44677;52.378;10.400;2023-03-19T10:55:53;1.80;;;1.40;;
58896;SDS011;44677;52.378;10.400;2023-03-19T10:58:25;3.60;;;1.60;;
58896;SDS011;44677;52.378;10.400;2023-03-19T11:00:56;1.70;;;1.60;;
58896;SDS011;44677;52.378;10.400;2023-03-19T11:06:35;3.00;;;1.30;;
58896;SDS011;44677;52.378;10.400;2023-03-19T11:11:40;2.00;;;1.50;;
58896;SDS011;44677;52.378;10.400;2023-03-19T11:19:49;1.10;;;1.00;;
58896;SDS011;44677;52.378;10.400;2023-03-19T11:22:20;1.50;;;1.40;;
58896;SDS011;44677;52.378;10.400;2023-03-19T11:27:39;1.10;;;1.00;;
58896;SDS011;44677;52.378;10.400;2023-03-19T11:30:13;2.60;;;1.30;;
58896;SDS011;44677;52.378;10.400;2023-03-19T11:33:00;1.40;;;1.30;;
58896;SDS011;44677;52.378;10.400;2023-03-19T11:38:09;2.00;;;1.50;;
58896;SDS011;44677;52.378;10.400;2023-03-19T11:43:29;3.50;;;2.10;;
58896;SDS011;44677;52.378;10.400;2023-03-19T11:49:22;2.70;;;2.20;;
58896;SDS011;44677;52.378;10.400;2023-03-19T11:51:53;3.70;;;2.20;;
58896;SDS011;44677;52.378;10.400;2023-03-19T11:57:44;4.50;;;2.20;;
58896;SDS011;44677;52.378;10.400;2023-03-19T12:00:21;3.90;;;2.20;;
58896;SDS011;44677;52.378;10.400;2023-03-19T12:02:57;2.30;;;1.90;;
58896;SDS011;44677;52.378;10.400;2023-03-19T12:05:45;4.00;;;2.40;;
58896;SDS011;44677;52.378;10.400;2023-03-19T12:08:32;1.90;;;1.70;;
58896;SDS011;44677;52.378;10.400;2023-03-19T12:14:07;2.10;;;1.40;;
58896;SDS011;44677;52.378;10.400;2023-03-19T12:17:06;1.60;;;1.50;;
58896;SDS011;44677;52.378;10.400;2023-03-19T12:19:48;1.60;;;1.20;;
58896;SDS011;44677;52.378;10.400;2023-03-19T12:28:12;2.20;;;1.30;;
58896;SDS011;44677;52.378;10.400;2023-03-19T12:30:53;3.00;;;1.60;;
58896;SDS011;44677;52.378;10.400;2023-03-19T12:36:24;2.00;;;1.80;;
58896;SDS011;44677;52.378;10.400;2023-03-19T12:38:53;4.00;;;1.60;;
58896;SDS011;44677;52.378;10.400;2023-03-19T12:41:27;5.10;;;1.80;;
58896;SDS011;44677;52.378;10.400;2023-03-19T12:44:55;2.20;;;1.70;;
58896;SDS011;44677;52.378;10.400;2023-03-19T12:47:08;3.40;;;1.80;;
58896;SDS011;44677;52.378;10.400;2023-03-19T12:49:50;3.50;;;2.10;;
58896;SDS011;44677;52.378;10.400;2023-03-19T12:57:53;3.00;;;1.70;;
58896;SDS011;44677;52.378;10.400;2023-03-19T13:00:30;3.90;;;2.20;;
58896;SDS011;44677;52.378;10.400;2023-03-19T13:03:01;4.70;;;2.40;;
58896;SDS011;44677;52.378;10.400;2023-03-19T13:05:54;3.50;;;2.10;;
58896;SDS011;44677;52.378;10.400;2023-03-19T13:08:40;3.60;;;2.20;;
58896;SDS011;44677;52.378;10.400;2023-03-19T13:11:11;2.90;;;2.50;;
58896;SDS011;44677;52.378;10.400;2023-03-19T13:19:17;4.00;;;2.80;;
58896;SDS011;44677;52.378;10.400;2023-03-19T13:21:44;7.70;;;3.00;;
58896;SDS011;44677;52.378;10.400;2023-03-19T13:24:18;3.90;;;2.70;;
58896;SDS011;44677;52.378;10.400;2023-03-19T13:26:54;4.40;;;2.80;;
58896;SDS011;44677;52.378;10.400;2023-03-19T13:29:21;3.90;;;2.70;;
58896;SDS011;44677;52.378;10.400;2023-03-19T13:31:48;3.70;;;2.40;;
58896;SDS011;44677;52.378;10.400;2023-03-19T13:36:47;4.20;;;2.50;;
58896;SDS011;44677;52.378;10.400;2023-03-19T13:39:18;3.70;;;2.60;;
58896;SDS011;44677;52.378;10.400;2023-03-19T13:41:47;3.50;;;2.50;;
58896;SDS011;44677;52.378;10.400;2023-03-19T13:46:42;3.10;;;2.80;;
58896;SDS011;44677;52.378;10.400;2023-03-19T13:49:21;4.80;;;2.90;;
58896;SDS011;44677;52.378;10.400;2023-03-19T13:52:54;4.00;;;2.80;;
58896;SDS011;44677;52.378;10.400;2023-03-19T13:54:46;5.20;;;2.50;;
58896;SDS011;44677;52.378;10.400;2023-03-19T13:57:18;3.90;;;2.40;;
58896;SDS011;44677;52.378;10.400;2023-03-19T13:59:46;4.10;;;2.40;;
58896;SDS011;44677;52.378;10.400;2023-03-19T14:07:33;4.80;;;2.80;;
58896;SDS011;44677;52.378;10.400;2023-03-19T14:12:39;2.70;;;2.50;;
58896;SDS011;44677;52.378;10.400;2023-03-19T14:23:09;3.70;;;1.90;;
58896;SDS011;44677;52.378;10.400;2023-03-19T14:25:53;2.30;;;2.00;;
58896;SDS011;44677;52.378;10.400;2023-03-19T14:28:23;2.70;;;1.80;;
58896;SDS011;44677;52.378;10.400;2023-03-19T14:31:28;2.70;;;1.80;;
58896;SDS011;44677;52.378;10.400;2023-03-19T14:36:36;2.70;;;1.80;;
58896;SDS011;44677;52.378;10.400;2023-03-19T14:39:26;2.50;;;1.70;;
58896;SDS011;44677;52.378;10.400;2023-03-19T14:52:50;3.00;;;1.90;;
58896;SDS011;44677;52.378;10.400;2023-03-19T14:55:21;3.20;;;1.90;;
58896;SDS011;44677;52.378;10.400;2023-03-19T14:57:47;3.20;;;1.70;;
58896;SDS011;44677;52.378;10.400;2023-03-19T15:00:13;3.90;;;2.00;;
58896;SDS011;44677;52.378;10.400;2023-03-19T15:02:46;5.00;;;2.20;;
58896;SDS011;44677;52.378;10.400;2023-03-19T15:05:29;3.40;;;2.20;;
58896;SDS011;44677;52.378;10.400;2023-03-19T15:08:08;3.30;;;2.50;;
58896;SDS011;44677;52.378;10.400;2023-03-19T15:10:53;4.10;;;2.40;;
58896;SDS011;44677;52.378;10.400;2023-03-19T15:18:52;4.20;;;2.40;;
58896;SDS011;44677;52.378;10.400;2023-03-19T15:21:18;3.60;;;2.20;;
58896;SDS011;44677;52.378;10.400;2023-03-19T15:23:45;2.70;;;2.30;;
58896;SDS011;44677;52.378;10.400;2023-03-19T15:26:10;2.10;;;1.90;;
58896;SDS011;44677;52.378;10.400;2023-03-19T15:28:43;2.30;;;1.90;;
58896;SDS011;44677;52.378;10.400;2023-03-19T15:31:13;3.80;;;2.30;;
58896;SDS011;44677;52.378;10.400;2023-03-19T15:33:41;6.20;;;2.40;;
58896;SDS011;44677;52.378;10.400;2023-03-19T15:39:00;2.40;;;2.10;;
58896;SDS011;44677;52.378;10.400;2023-03-19T15:41:29;5.10;;;2.30;;
58896;SDS011;44677;52.378;10.400;2023-03-19T15:43:57;5.60;;;2.10;;
58896;SDS011;44677;52.378;10.400;2023-03-19T15:46:24;3.70;;;2.30;;
58896;SDS011;44677;52.378;10.400;2023-03-19T15:49:01;4.30;;;2.50;;
58896;SDS011;44677;52.378;10.400;2023-03-19T15:51:29;3.20;;;2.60;;
58896;SDS011;44677;52.378;10.400;2023-03-19T15:53:55;2.80;;;2.20;;
58896;SDS011;44677;52.378;10.400;2023-03-19T15:56:21;3.40;;;2.50;;
58896;SDS011;44677;52.378;10.400;2023-03-19T15:58:48;2.70;;;2.00;;
58896;SDS011;44677;52.378;10.400;2023-03-19T16:01:16;3.60;;;2.20;;
58896;SDS011;44677;52.378;10.400;2023-03-19T16:03:43;2.40;;;2.20;;
58896;SDS011;44677;52.378;10.400;2023-03-19T16:06:18;3.90;;;2.50;;
58896;SDS011;44677;52.378;10.400;2023-03-19T16:08:50;2.60;;;2.40;;
58896;SDS011;44677;52.378;10.400;2023-03-19T16:11:35;2.90;;;2.00;;
58896;SDS011;44677;52.378;10.400;2023-03-19T16:17:13;2.30;;;1.80;;
58896;SDS011;44677;52.378;10.400;2023-03-19T16:22:24;1.70;;;1.50;;
58896;SDS011;44677;52.378;10.400;2023-03-19T16:24:53;2.90;;;1.60;;
58896;SDS011;44677;52.378;10.400;2023-03-19T16:27:20;2.50;;;1.70;;
58896;SDS011;44677;52.378;10.400;2023-03-19T16:29:56;2.50;;;2.00;;
58896;SDS011;44677;52.378;10.400;2023-03-19T16:32:23;5.80;;;2.10;;
58896;SDS011;44677;52.378;10.400;2023-03-19T16:34:56;3.70;;;2.30;;
58896;SDS011;44677;52.378;10.400;2023-03-19T16:37:44;2.90;;;2.10;;
58896;SDS011;44677;52.378;10.400;2023-03-19T16:42:42;2.20;;;2.00;;
58896;SDS011;44677;52.378;10.400;2023-03-19T16:47:40;3.60;;;2.20;;
58896;SDS011;44677;52.378;10.400;2023-03-19T16:50:06;3.10;;;2.20;;
58896;SDS011;44677;52.378;10.400;2023-03-19T16:52:32;2.70;;;2.10;;
58896;SDS011;44677;52.378;10.400;2023-03-19T16:54:58;3.50;;;2.50;;
58896;SDS011;44677;52.378;10.400;2023-03-19T16:57:24;2.60;;;2.40;;
58896;SDS011;44677;52.378;10.400;2023-03-19T16:59:49;3.00;;;2.50;;
58896;SDS011;44677;52.378;10.400;2023-03-19T17:02:16;7.80;;;2.60;;
58896;SDS011;44677;52.378;10.400;2023-03-19T17:04:42;3.50;;;2.80;;
58896;SDS011;44677;52.378;10.400;2023-03-19T17:07:07;2.90;;;2.60;;
58896;SDS011;44677;52.378;10.400;2023-03-19T17:09:33;2.70;;;2.50;;
58896;SDS011;44677;52.378;10.400;2023-03-19T17:11:59;4.00;;;2.90;;
58896;SDS011;44677;52.378;10.400;2023-03-19T17:16:51;3.50;;;3.00;;
58896;SDS011;44677;52.378;10.400;2023-03-19T17:19:17;3.20;;;2.90;;